Time,TemperatureF,DewpointF,PressureIn,WindDirection,WindDirectionDegrees,WindSpeedMPH,WindSpeedGustMPH,Humidity,HourlyPrecipIn,Conditions,Clouds,dailyrainin,SoftwareType,DateUTC
2013-04-30 00:01:00,55.5,53.2,30.06,SSE,163,0.0,0.0,92,0.00,CLR,SKC,0.00,WeatherDisplay:10.37,2013-04-30 04:01:00,
2013-04-30 00:06:00,55.5,53.2,30.06,SSE,163,0.0,0.0,92,0.00,CLR,SKC,0.00,WeatherDisplay:10.37,2013-04-30 04:06:00,
2013-04-30 00:11:00,55.5,53.2,30.06,SSE,163,0.0,0.1,92,0.00,CLR,SKC,0.00,WeatherDisplay:10.37,2013-04-30 04:11:00,
2013-04-30 00:16:00,55.5,53.2,30.06,SSE,163,0.0,0.0,92,0.00,CLR,SKC,0.00,WeatherDisplay:10.37,2013-04-30 04:16:00,
2013-04-30 00:21:00,55.5,52.9,30.06,South,178,0.0,0.0,91,0.00,CLR,SKC,0.00,WeatherDisplay:10.37,2013-04-30 04:21:00,
2013-04-30 00:26:00,55.6,53.0,30.06,SSW,206,0.0,0.0,91,0.00,CLR,SKC,0.00,WeatherDisplay:10.37,2013-04-30 04:26:00,
2013-04-30 00:31:00,55.6,53.0,30.06,South,173,0.0,0.0,91,0.00,CLR,SKC,0.00,WeatherDisplay:10.37,2013-04-30 04:31:00,
2013-04-30 00:36:00,55.6,53.0,30.06,South,174,0.0,0.0,91,0.00,CLR,SKC,0.00,WeatherDisplay:10.37,2013-04-30 04:36:00,
2013-04-30 00:41:00,55.6,53.0,30.06,South,174,0.0,0.0,91,0.00,CLR,SKC,0.00,WeatherDisplay:10.37,2013-04-30 04:41:00,
2013-04-30 00:46:00,55.6,53.3,30.06,South,174,0.0,0.0,92,0.00,CLR,SKC,0.00,WeatherDisplay:10.37,2013-04-30 04:46:00,
2013-04-30 00:51:00,55.5,53.2,30.06,South,174,0.0,0.0,92,0.00,CLR,SKC,0.00,WeatherDisplay:10.37,2013-04-30 04:51:00,
2013-04-30 00:56:00,55.5,53.2,30.06,South,174,0.0,0.0,92,0.00,CLR,SKC,0.00,WeatherDisplay:10.37,2013-04-30 04:56:00,
2013-04-30 01:01:00,55.5,53.2,30.06,South,174,0.0,0.0,92,0.00,CLR,SKC,0.00,WeatherDisplay:10.37,2013-04-30 05:01:00,
2013-04-30 01:06:00,55.4,53.1,30.06,South,174,0.0,0.0,92,0.00,CLR,SKC,0.00,WeatherDisplay:10.37,2013-04-30 05:06:00,
2013-04-30 01:11:00,55.4,53.1,30.06,South,175,1.1,1.1,92,0.00,CLR,SKC,0.00,WeatherDisplay:10.37,2013-04-30 05:11:00,
2013-04-30 01:16:00,55.4,53.1,30.06,WSW,243,0.0,0.0,92,0.00,CLR,SKC,0.00,WeatherDisplay:10.37,2013-04-30 05:16:00,
2013-04-30 01:21:00,55.4,53.1,30.06,SSW,207,1.1,0.0,92,0.00,CLR,SKC,0.00,WeatherDisplay:10.37,2013-04-30 05:21:00,
2013-04-30 01:26:00,55.4,52.8,30.06,SSW,207,0.0,0.0,91,0.00,CLR,SKC,0.00,WeatherDisplay:10.37,2013-04-30 05:26:00,
2013-04-30 01:31:00,55.4,52.8,30.06,SSW,207,1.0,0.0,91,0.00,CLR,SKC,0.00,WeatherDisplay:10.37,2013-04-30 05:31:00,
2013-04-30 01:36:00,55.5,52.9,30.06,SSW,207,0.0,0.0,91,0.00,CLR,SKC,0.00,WeatherDisplay:10.37,2013-04-30 05:36:00,
2013-04-30 01:41:00,55.4,52.8,30.06,SSW,207,0.0,0.0,91,0.00,CLR,SKC,0.00,WeatherDisplay:10.37,2013-04-30 05:41:00,
2013-04-30 01:46:00,55.4,53.1,30.06,SSW,207,0.0,0.0,92,0.00,CLR,SKC,0.00,WeatherDisplay:10.37,2013-04-30 05:46:00,
2013-04-30 01:51:00,55.4,53.1,30.06,SSW,207,0.0,0.0,92,0.00,CLR,SKC,0.00,WeatherDisplay:10.37,2013-04-30 05:51:00,
2013-04-30 01:56:00,55.4,52.8,30.06,SSW,207,0.0,0.0,91,0.00,CLR,SKC,0.00,WeatherDisplay:10.37,2013-04-30 05:56:00,
2013-04-30 02:01:00,55.4,52.8,30.06,SSW,207,1.1,0.0,91,0.00,CLR,SKC,0.00,WeatherDisplay:10.37,2013-04-30 06:01:00,
2013-04-30 02:06:00,55.4,52.8,30.06,SSW,207,0.0,0.0,91,0.00,CLR,SKC,0.00,WeatherDisplay:10.37,2013-04-30 06:06:00,
2013-04-30 02:11:00,55.4,52.8,30.07,SSW,207,0.0,0.0,91,0.00,CLR,SKC,0.00,WeatherDisplay:10.37,2013-04-30 06:11:00,
2013-04-30 02:16:00,55.4,52.8,30.06,South,180,0.0,0.0,91,0.00,CLR,SKC,0.00,WeatherDisplay:10.37,2013-04-30 06:16:00,
2013-04-30 02:21:00,55.4,52.8,30.06,South,180,0.0,0.0,91,0.00,CLR,SKC,0.00,WeatherDisplay:10.37,2013-04-30 06:21:00,
2013-04-30 02:26:00,55.4,52.8,30.06,SW,215,1.1,0.0,91,0.00,CLR,SKC,0.00,WeatherDisplay:10.37,2013-04-30 06:26:00,
2013-04-30 02:31:00,55.4,52.8,30.06,SSW,198,3.0,3.0,91,0.00,CLR,SKC,0.00,WeatherDisplay:10.37,2013-04-30 06:31:00,
2013-04-30 02:36:00,55.4,52.5,30.06,SSW,202,0.0,0.0,90,0.00,CLR,SKC,0.00,WeatherDisplay:10.37,2013-04-30 06:36:00,
2013-04-30 02:41:00,55.4,52.8,30.06,NE,41,2.0,2.0,91,0.00,CLR,SKC,0.00,WeatherDisplay:10.37,2013-04-30 06:41:00,
2013-04-30 02:46:00,55.4,52.8,30.06,WSW,238,1.1,0.0,91,0.00,CLR,SKC,0.00,WeatherDisplay:10.37,2013-04-30 06:46:00,
2013-04-30 02:51:00,55.4,52.8,30.06,WSW,238,0.0,0.0,91,0.00,CLR,SKC,0.00,WeatherDisplay:10.37,2013-04-30 06:51:00,
2013-04-30 02:56:00,55.4,52.8,30.06,SW,230,0.0,0.0,91,0.00,CLR,SKC,0.00,WeatherDisplay:10.37,2013-04-30 06:56:00,
2013-04-30 03:01:00,55.3,52.7,30.07,SW,230,0.0,0.0,91,0.00,CLR,SKC,0.00,WeatherDisplay:10.37,2013-04-30 07:01:00,
2013-04-30 03:06:00,55.3,52.7,30.07,SW,230,0.0,0.0,91,0.00,CLR,SKC,0.00,WeatherDisplay:10.37,2013-04-30 07:06:00,
2013-04-30 03:11:00,55.3,52.7,30.07,SW,230,0.0,0.0,91,0.00,CLR,SKC,0.00,WeatherDisplay:10.37,2013-04-30 07:11:00,
2013-04-30 03:16:00,55.2,52.6,30.06,South,176,1.1,0.0,91,0.00,CLR,SKC,0.00,WeatherDisplay:10.37,2013-04-30 07:16:00,
2013-04-30 03:21:00,55.2,52.6,30.07,South,176,0.0,0.0,91,0.00,CLR,SKC,0.00,WeatherDisplay:10.37,2013-04-30 07:21:00,
2013-04-30 03:26:00,55.1,52.5,30.07,South,176,0.0,0.0,91,0.00,CLR,SKC,0.00,WeatherDisplay:10.37,2013-04-30 07:26:00,
2013-04-30 03:31:00,55.1,52.5,30.07,South,176,0.0,0.0,91,0.00,CLR,SKC,0.00,WeatherDisplay:10.37,2013-04-30 07:31:00,
2013-04-30 03:36:00,55.1,52.5,30.07,South,176,0.0,0.0,91,0.00,CLR,SKC,0.00,WeatherDisplay:10.37,2013-04-30 07:36:00,
2013-04-30 03:41:00,55.0,52.4,30.07,South,176,0.0,0.0,91,0.00,CLR,SKC,0.00,WeatherDisplay:10.37,2013-04-30 07:41:00,
2013-04-30 03:46:00,55.0,52.4,30.07,South,176,0.0,0.0,91,0.00,CLR,SKC,0.00,WeatherDisplay:10.37,2013-04-30 07:46:00,
2013-04-30 03:51:00,55.0,52.4,30.07,South,176,0.0,0.0,91,0.00,CLR,SKC,0.00,WeatherDisplay:10.37,2013-04-30 07:51:00,
2013-04-30 03:56:00,55.0,52.7,30.07,South,176,0.0,0.0,92,0.00,CLR,SKC,0.00,WeatherDisplay:10.37,2013-04-30 07:56:00,
2013-04-30 04:01:00,55.0,52.7,30.08,South,176,0.0,0.0,92,0.00,CLR,SKC,0.00,WeatherDisplay:10.37,2013-04-30 08:01:00,
2013-04-30 04:06:00,54.9,52.6,30.08,South,176,0.0,0.0,92,0.00,CLR,SKC,0.00,WeatherDisplay:10.37,2013-04-30 08:06:00,
2013-04-30 04:11:00,54.9,52.6,30.08,South,176,0.0,0.0,92,0.00,CLR,SKC,0.00,WeatherDisplay:10.37,2013-04-30 08:11:00,
2013-04-30 04:16:00,54.9,52.6,30.08,South,176,0.0,0.0,92,0.00,CLR,SKC,0.00,WeatherDisplay:10.37,2013-04-30 08:16:00,
2013-04-30 04:21:00,54.9,52.6,30.08,South,176,1.1,0.0,92,0.00,CLR,SKC,0.00,WeatherDisplay:10.37,2013-04-30 08:21:00,
2013-04-30 04:26:00,54.8,52.5,30.08,South,176,0.0,0.0,92,0.00,CLR,SKC,0.00,WeatherDisplay:10.37,2013-04-30 08:26:00,
2013-04-30 04:31:00,54.7,52.4,30.08,South,176,0.0,0.0,92,0.00,CLR,SKC,0.00,WeatherDisplay:10.37,2013-04-30 08:31:00,
2013-04-30 04:36:00,54.7,52.4,30.08,South,176,0.0,0.0,92,0.00,CLR,SKC,0.00,WeatherDisplay:10.37,2013-04-30 08:36:00,
2013-04-30 04:41:00,54.7,52.4,30.08,South,176,0.0,0.0,92,0.00,CLR,SKC,0.00,WeatherDisplay:10.37,2013-04-30 08:41:00,
2013-04-30 04:46:00,54.7,52.4,30.08,South,176,0.0,0.0,92,0.00,CLR,SKC,0.00,WeatherDisplay:10.37,2013-04-30 08:46:00,
2013-04-30 04:51:00,54.7,52.4,30.08,South,176,1.1,0.0,92,0.00,CLR,SKC,0.00,WeatherDisplay:10.37,2013-04-30 08:51:00,
2013-04-30 04:56:00,54.7,52.4,30.09,South,176,0.0,0.0,92,0.00,CLR,SKC,0.00,WeatherDisplay:10.37,2013-04-30 08:56:00,
2013-04-30 05:01:00,54.7,52.4,30.09,South,180,1.1,0.0,92,0.00,CLR,SKC,0.00,WeatherDisplay:10.37,2013-04-30 09:01:00,
2013-04-30 05:06:00,54.7,52.4,30.09,South,180,0.0,0.0,92,0.00,CLR,SKC,0.00,WeatherDisplay:10.37,2013-04-30 09:06:00,
2013-04-30 05:11:00,54.7,52.4,30.09,South,180,1.1,0.0,92,0.00,CLR,SKC,0.00,WeatherDisplay:10.37,2013-04-30 09:11:00,
2013-04-30 05:16:00,54.7,52.4,30.09,SSW,192,3.0,3.0,92,0.00,CLR,SKC,0.00,WeatherDisplay:10.37,2013-04-30 09:16:00,
2013-04-30 05:21:00,54.7,52.4,30.09,SSW,200,1.0,1.0,92,0.00,CLR,SKC,0.00,WeatherDisplay:10.37,2013-04-30 09:21:00,
2013-04-30 05:26:00,54.6,52.3,30.09,SSW,213,2.3,0.0,92,0.00,CLR,SKC,0.00,WeatherDisplay:10.37,2013-04-30 09:26:00,
2013-04-30 05:31:00,54.6,52.3,30.09,SSW,208,1.1,0.0,92,0.00,CLR,SKC,0.00,WeatherDisplay:10.37,2013-04-30 09:31:00,
2013-04-30 05:36:00,54.6,52.3,30.09,SSW,207,1.1,0.0,92,0.00,CLR,SKC,0.00,WeatherDisplay:10.37,2013-04-30 09:36:00,
2013-04-30 05:41:00,54.6,52.6,30.10,SSW,207,0.0,0.0,93,0.00,CLR,SKC,0.00,WeatherDisplay:10.37,2013-04-30 09:41:00,
2013-04-30 05:46:00,54.5,52.5,30.10,SSW,207,0.0,0.0,93,0.00,CLR,SKC,0.00,WeatherDisplay:10.37,2013-04-30 09:46:00,
2013-04-30 05:51:00,54.4,52.4,30.10,SSW,207,1.1,0.0,93,0.00,CLR,SKC,0.00,WeatherDisplay:10.37,2013-04-30 09:51:00,
2013-04-30 05:56:00,54.4,52.4,30.10,SSW,207,1.1,1.1,93,0.00,CLR,SKC,0.00,WeatherDisplay:10.37,2013-04-30 09:56:00,
2013-04-30 06:01:00,54.4,52.4,30.10,SSW,195,3.0,3.0,93,0.00,CLR,SKC,0.00,WeatherDisplay:10.37,2013-04-30 10:01:00,
2013-04-30 06:06:00,54.4,52.4,30.10,South,185,0.0,0.0,93,0.00,CLR,SKC,0.00,WeatherDisplay:10.37,2013-04-30 10:06:00,
2013-04-30 06:11:00,54.4,52.4,30.11,SSW,200,4.0,4.0,93,0.00,CLR,SKC,0.00,WeatherDisplay:10.37,2013-04-30 10:11:00,
2013-04-30 06:16:00,54.4,52.4,30.11,SSW,199,0.0,0.0,93,0.00,CLR,SKC,0.00,WeatherDisplay:10.37,2013-04-30 10:16:00,
2013-04-30 06:21:00,54.4,52.4,30.11,SSW,200,0.0,0.0,93,0.00,CLR,SKC,0.00,WeatherDisplay:10.37,2013-04-30 10:21:00,
2013-04-30 06:26:00,54.4,52.4,30.11,SSW,200,0.0,0.0,93,0.00,CLR,SKC,0.00,WeatherDisplay:10.37,2013-04-30 10:26:00,
2013-04-30 06:31:00,54.4,52.4,30.11,SSW,200,0.0,0.0,93,0.00,CLR,SKC,0.00,WeatherDisplay:10.37,2013-04-30 10:31:00,
2013-04-30 06:36:00,54.4,52.4,30.12,SSW,192,2.3,2.3,93,0.00,CLR,SKC,0.00,WeatherDisplay:10.37,2013-04-30 10:36:00,
2013-04-30 06:41:00,54.4,52.4,30.12,SSW,192,1.1,0.0,93,0.00,CLR,SKC,0.00,WeatherDisplay:10.37,2013-04-30 10:41:00,
2013-04-30 06:46:00,54.4,52.7,30.12,SSW,192,0.0,0.0,94,0.00,CLR,SKC,0.00,WeatherDisplay:10.37,2013-04-30 10:46:00,
2013-04-30 06:51:00,54.3,52.6,30.12,SSW,192,0.0,0.0,94,0.00,CLR,SKC,0.00,WeatherDisplay:10.37,2013-04-30 10:51:00,
2013-04-30 06:56:00,54.3,52.6,30.12,SSW,192,0.0,0.0,94,0.00,CLR,SKC,0.00,WeatherDisplay:10.37,2013-04-30 10:56:00,
2013-04-30 07:01:00,54.3,52.6,30.12,SSW,192,0.0,0.0,94,0.00,CLR,SKC,0.00,WeatherDisplay:10.37,2013-04-30 11:01:00,
2013-04-30 07:06:00,54.3,52.6,30.12,SSW,192,0.0,0.0,94,0.00,CLR,SKC,0.00,WeatherDisplay:10.37,2013-04-30 11:06:00,
2013-04-30 07:11:00,54.2,52.5,30.13,SSW,192,2.3,2.3,94,0.00,CLR,SKC,0.00,WeatherDisplay:10.37,2013-04-30 11:11:00,
2013-04-30 07:16:00,54.2,52.5,30.13,SSW,195,2.3,2.3,94,0.00,CLR,SKC,0.00,WeatherDisplay:10.37,2013-04-30 11:16:00,
2013-04-30 07:21:00,54.2,52.5,30.13,SSW,200,0.0,0.0,94,0.00,CLR,SKC,0.00,WeatherDisplay:10.37,2013-04-30 11:21:00,
2013-04-30 07:26:00,54.2,52.5,30.14,SSW,200,3.4,3.4,94,0.00,CLR,SKC,0.00,WeatherDisplay:10.37,2013-04-30 11:26:00,
2013-04-30 07:31:00,54.2,52.5,30.13,SSW,200,1.0,1.0,94,0.00,CLR,SKC,0.00,WeatherDisplay:10.37,2013-04-30 11:31:00,
2013-04-30 07:36:00,54.2,52.5,30.13,SSE,151,5.0,5.0,94,0.00,CLR,SKC,0.00,WeatherDisplay:10.37,2013-04-30 11:36:00,
2013-04-30 07:41:00,54.2,52.5,30.13,SSW,205,1.1,0.0,94,0.00,CLR,SKC,0.00,WeatherDisplay:10.37,2013-04-30 11:41:00,
2013-04-30 07:46:00,54.3,52.6,30.13,SSW,192,2.3,0.0,94,0.00,CLR,SKC,0.00,WeatherDisplay:10.37,2013-04-30 11:46:00,
2013-04-30 07:51:00,54.4,52.7,30.14,South,184,1.1,0.0,94,0.00,CLR,SKC,0.00,WeatherDisplay:10.37,2013-04-30 11:51:00,
2013-04-30 07:56:00,54.5,52.8,30.14,South,184,1.1,0.0,94,0.00,CLR,SKC,0.00,WeatherDisplay:10.37,2013-04-30 11:56:00,
2013-04-30 08:01:00,54.5,52.5,30.14,South,186,3.4,3.4,93,0.00,CLR,SKC,0.00,WeatherDisplay:10.37,2013-04-30 12:01:00,
2013-04-30 08:06:00,54.7,52.7,30.14,South,186,0.0,0.0,93,0.00,CLR,SKC,0.00,WeatherDisplay:10.37,2013-04-30 12:06:00,
2013-04-30 08:11:00,54.8,52.5,30.15,SSW,198,1.1,1.1,92,0.00,CLR,SKC,0.00,WeatherDisplay:10.37,2013-04-30 12:11:00,
2013-04-30 08:16:00,54.9,52.6,30.15,SSW,203,2.3,2.3,92,0.00,CLR,SKC,0.00,WeatherDisplay:10.37,2013-04-30 12:16:00,
2013-04-30 08:21:00,55.0,52.7,30.15,South,186,0.0,0.0,92,0.00,CLR,SKC,0.00,WeatherDisplay:10.37,2013-04-30 12:21:00,
2013-04-30 08:26:00,55.0,52.4,30.15,SSW,193,0.0,0.0,91,0.00,CLR,SKC,0.00,WeatherDisplay:10.37,2013-04-30 12:26:00,
2013-04-30 08:31:00,55.0,52.4,30.15,SSW,213,3.4,3.4,91,0.00,CLR,SKC,0.00,WeatherDisplay:10.37,2013-04-30 12:31:00,
2013-04-30 08:36:00,55.1,52.5,30.15,SW,215,1.1,0.0,91,0.00,CLR,SKC,0.00,WeatherDisplay:10.37,2013-04-30 12:36:00,
2013-04-30 08:41:00,55.1,52.5,30.15,SSW,200,3.4,3.4,91,0.00,CLR,SKC,0.00,WeatherDisplay:10.37,2013-04-30 12:41:00,
2013-04-30 08:46:00,55.1,51.9,30.16,SSW,192,4.6,4.6,89,0.00,CLR,SKC,0.00,WeatherDisplay:10.37,2013-04-30 12:46:00,
2013-04-30 08:51:00,55.1,52.2,30.16,SSW,196,2.3,2.3,90,0.00,CLR,SKC,0.00,WeatherDisplay:10.37,2013-04-30 12:51:00,
2013-04-30 08:56:00,55.1,51.9,30.16,South,178,3.4,3.4,89,0.00,CLR,SKC,0.00,WeatherDisplay:10.37,2013-04-30 12:56:00,
2013-04-30 09:01:00,55.1,51.9,30.16,SSW,192,1.1,1.1,89,0.00,CLR,SKC,0.00,WeatherDisplay:10.37,2013-04-30 13:01:00,
2013-04-30 09:06:00,55.2,52.0,30.16,SSE,148,2.3,2.3,89,0.00,CLR,SKC,0.00,WeatherDisplay:10.37,2013-04-30 13:06:00,
2013-04-30 09:11:00,55.3,52.1,30.16,SW,215,1.1,1.1,89,0.00,CLR,SKC,0.00,WeatherDisplay:10.37,2013-04-30 13:11:00,
2013-04-30 09:16:00,55.3,52.1,30.16,SW,217,1.0,1.0,89,0.00,CLR,SKC,0.00,WeatherDisplay:10.37,2013-04-30 13:16:00,
2013-04-30 09:21:00,55.4,52.2,30.16,SSW,195,1.1,1.1,89,0.00,CLR,SKC,0.00,WeatherDisplay:10.37,2013-04-30 13:21:00,
2013-04-30 09:26:00,55.4,52.2,30.16,SW,230,0.0,0.0,89,0.00,CLR,SKC,0.00,WeatherDisplay:10.37,2013-04-30 13:26:00,
2013-04-30 09:31:00,55.4,52.2,30.16,SW,230,0.0,0.0,89,0.00,CLR,SKC,0.00,WeatherDisplay:10.37,2013-04-30 13:31:00,
2013-04-30 09:36:00,55.5,52.0,30.16,South,191,3.4,3.4,88,0.00,CLR,SKC,0.00,WeatherDisplay:10.37,2013-04-30 13:36:00,
2013-04-30 09:41:00,55.5,52.3,30.16,SSW,209,1.1,0.0,89,0.00,CLR,SKC,0.00,WeatherDisplay:10.37,2013-04-30 13:41:00,
2013-04-30 09:46:00,55.6,52.1,30.16,SSE,159,1.1,0.0,88,0.00,CLR,SKC,0.00,WeatherDisplay:10.37,2013-04-30 13:46:00,
2013-04-30 09:51:00,55.6,51.8,30.16,SSW,209,3.4,3.4,87,0.00,CLR,SKC,0.00,WeatherDisplay:10.37,2013-04-30 13:51:00,
2013-04-30 09:56:00,55.7,52.2,30.16,SSW,205,0.0,0.0,88,0.00,CLR,SKC,0.00,WeatherDisplay:10.37,2013-04-30 13:56:00,
2013-04-30 10:01:00,55.7,51.9,30.16,SSW,213,3.0,3.0,87,0.00,CLR,SKC,0.00,WeatherDisplay:10.37,2013-04-30 14:01:00,
2013-04-30 10:06:00,55.8,52.3,30.16,SW,225,0.0,0.0,88,0.00,CLR,SKC,0.00,WeatherDisplay:10.37,2013-04-30 14:06:00,
2013-04-30 10:11:00,55.9,52.1,30.16,WSW,243,1.1,1.1,87,0.00,CLR,SKC,0.00,WeatherDisplay:10.37,2013-04-30 14:11:00,
2013-04-30 10:16:00,56.0,52.2,30.16,SW,223,3.4,3.4,87,0.00,CLR,SKC,0.00,WeatherDisplay:10.37,2013-04-30 14:16:00,
2013-04-30 10:21:00,56.2,52.4,30.16,SW,223,1.1,0.0,87,0.00,CLR,SKC,0.00,WeatherDisplay:10.37,2013-04-30 14:21:00,
2013-04-30 10:26:00,56.5,52.4,30.16,South,183,3.4,3.4,86,0.00,CLR,SKC,0.00,WeatherDisplay:10.37,2013-04-30 14:26:00,
2013-04-30 10:31:00,56.7,52.9,30.16,SSW,197,3.0,3.0,87,0.00,CLR,SKC,0.00,WeatherDisplay:10.37,2013-04-30 14:31:00,
2013-04-30 10:36:00,57.2,53.0,30.16,South,190,1.1,1.1,86,0.00,CLR,SKC,0.00,WeatherDisplay:10.37,2013-04-30 14:36:00,
2013-04-30 10:41:00,57.5,53.3,30.16,SSW,199,1.1,0.0,86,0.00,CLR,SKC,0.00,WeatherDisplay:10.37,2013-04-30 14:41:00,
2013-04-30 10:46:00,57.9,53.4,30.16,South,182,0.0,0.0,85,0.00,CLR,SKC,0.00,WeatherDisplay:10.37,2013-04-30 14:46:00,
2013-04-30 10:51:00,58.4,53.9,30.16,South,182,1.1,0.0,85,0.00,CLR,SKC,0.00,WeatherDisplay:10.37,2013-04-30 14:51:00,
2013-04-30 10:56:00,58.8,53.6,30.16,SSW,209,2.3,0.0,83,0.00,CLR,SKC,0.00,WeatherDisplay:10.37,2013-04-30 14:56:00,
2013-04-30 11:01:00,59.4,53.9,30.16,South,186,3.4,3.4,82,0.00,CLR,SKC,0.00,WeatherDisplay:10.37,2013-04-30 15:01:00,
2013-04-30 11:06:00,59.7,53.9,30.16,SSE,153,4.6,4.6,81,0.00,CLR,SKC,0.00,WeatherDisplay:10.37,2013-04-30 15:06:00,
2013-04-30 11:11:00,60.0,53.8,30.16,South,169,3.4,3.4,80,0.00,CLR,SKC,0.00,WeatherDisplay:10.37,2013-04-30 15:11:00,
2013-04-30 11:16:00,60.4,54.2,30.15,NNW,348,2.3,0.0,80,0.00,CLR,SKC,0.00,WeatherDisplay:10.37,2013-04-30 15:16:00,
2013-04-30 11:21:00,60.8,53.9,30.16,SSW,200,1.1,1.1,78,0.00,CLR,SKC,0.00,WeatherDisplay:10.37,2013-04-30 15:21:00,
2013-04-30 11:26:00,61.1,53.5,30.16,SSE,159,2.3,0.0,76,0.00,CLR,SKC,0.00,WeatherDisplay:10.37,2013-04-30 15:26:00,
2013-04-30 11:31:00,61.1,53.5,30.15,South,180,1.1,1.1,76,0.00,CLR,SKC,0.00,WeatherDisplay:10.37,2013-04-30 15:31:00,
2013-04-30 11:36:00,61.3,53.7,30.15,North,351,1.1,1.1,76,0.00,CLR,SKC,0.00,WeatherDisplay:10.37,2013-04-30 15:36:00,
2013-04-30 11:41:00,61.6,53.2,30.16,SW,217,3.4,3.4,74,0.00,CLR,SKC,0.00,WeatherDisplay:10.37,2013-04-30 15:41:00,
2013-04-30 11:46:00,61.8,53.4,30.16,SSW,211,5.8,5.8,74,0.00,CLR,SKC,0.00,WeatherDisplay:10.37,2013-04-30 15:46:00,
2013-04-30 11:51:00,61.8,53.4,30.16,SSW,210,2.3,2.3,74,0.00,CLR,SKC,0.00,WeatherDisplay:10.37,2013-04-30 15:51:00,
2013-04-30 11:56:00,61.9,53.9,30.16,SW,219,3.4,3.4,75,0.00,CLR,SKC,0.00,WeatherDisplay:10.37,2013-04-30 15:56:00,
2013-04-30 12:01:00,61.9,53.1,30.16,SSW,210,3.4,3.4,73,0.00,CLR,SKC,0.00,WeatherDisplay:10.37,2013-04-30 16:01:00,
2013-04-30 12:06:00,61.8,53.8,30.16,SSW,194,0.0,0.0,75,0.00,CLR,SKC,0.00,WeatherDisplay:10.37,2013-04-30 16:06:00,
2013-04-30 12:11:00,61.8,53.1,30.15,SSW,194,0.0,0.0,73,0.00,CLR,SKC,0.00,WeatherDisplay:10.37,2013-04-30 16:11:00,
2013-04-30 12:16:00,62.0,53.6,30.15,SSW,195,3.4,3.4,74,0.00,CLR,SKC,0.00,WeatherDisplay:10.37,2013-04-30 16:16:00,
2013-04-30 12:21:00,62.2,53.4,30.15,SSW,195,0.0,0.0,73,0.00,CLR,SKC,0.00,WeatherDisplay:10.37,2013-04-30 16:21:00,
2013-04-30 12:26:00,62.4,53.3,30.15,SSW,195,1.1,1.1,72,0.00,CLR,SKC,0.00,WeatherDisplay:10.37,2013-04-30 16:26:00,
2013-04-30 12:31:00,62.9,54.9,30.15,SW,215,3.4,0.0,75,0.00,CLR,SKC,0.00,WeatherDisplay:10.37,2013-04-30 16:31:00,
2013-04-30 12:36:00,63.7,54.5,30.15,SSW,211,1.1,1.1,72,0.00,CLR,SKC,0.00,WeatherDisplay:10.37,2013-04-30 16:36:00,
2013-04-30 12:41:00,64.1,53.7,30.14,SSE,152,1.1,1.1,69,0.00,CLR,SKC,0.00,WeatherDisplay:10.37,2013-04-30 16:41:00,
2013-04-30 12:46:00,64.1,53.7,30.14,SW,217,1.1,1.1,69,0.00,CLR,SKC,0.00,WeatherDisplay:10.37,2013-04-30 16:46:00,
2013-04-30 12:51:00,64.1,54.5,30.14,SSW,194,1.1,0.0,71,0.00,CLR,SKC,0.00,WeatherDisplay:10.37,2013-04-30 16:51:00,
2013-04-30 12:56:00,64.1,54.1,30.14,ENE,71,1.1,0.0,70,0.00,CLR,SKC,0.00,WeatherDisplay:10.37,2013-04-30 16:56:00,
2013-04-30 13:01:00,64.3,53.5,30.14,SSE,165,3.4,3.4,68,0.00,CLR,SKC,0.00,WeatherDisplay:10.37,2013-04-30 17:01:00,
2013-04-30 13:06:00,64.5,54.1,30.14,South,174,2.3,2.3,69,0.00,CLR,SKC,0.00,WeatherDisplay:10.37,2013-04-30 17:06:00,
2013-04-30 13:11:00,64.7,53.9,30.14,South,172,1.1,1.4,68,0.00,CLR,SKC,0.00,WeatherDisplay:10.37,2013-04-30 17:11:00,
2013-04-30 13:16:00,64.9,54.1,30.14,SSW,194,1.1,0.0,68,0.00,CLR,SKC,0.00,WeatherDisplay:10.37,2013-04-30 17:16:00,
2013-04-30 13:21:00,65.0,54.2,30.14,South,182,0.0,0.0,68,0.00,CLR,SKC,0.00,WeatherDisplay:10.37,2013-04-30 17:21:00,
2013-04-30 13:26:00,65.1,53.9,30.14,SSE,156,0.0,0.1,67,0.00,CLR,SKC,0.00,WeatherDisplay:10.37,2013-04-30 17:26:00,
2013-04-30 13:31:00,65.2,54.8,30.14,South,183,1.1,0.0,69,0.00,CLR,SKC,0.00,WeatherDisplay:10.37,2013-04-30 17:31:00,
2013-04-30 13:36:00,65.4,53.3,30.14,SSE,161,2.3,2.3,65,0.00,CLR,SKC,0.00,WeatherDisplay:10.37,2013-04-30 17:36:00,
2013-04-30 13:41:00,65.4,53.3,30.14,South,171,0.0,0.0,65,0.00,CLR,SKC,0.00,WeatherDisplay:10.37,2013-04-30 17:41:00,
2013-04-30 13:46:00,65.4,53.7,30.15,SSE,158,1.1,0.0,66,0.00,CLR,SKC,0.00,WeatherDisplay:10.37,2013-04-30 17:46:00,
2013-04-30 13:51:00,65.4,53.7,30.15,East,82,2.0,2.0,66,0.00,CLR,SKC,0.00,WeatherDisplay:10.37,2013-04-30 17:51:00,
2013-04-30 13:56:00,65.3,53.6,30.15,East,82,1.0,1.0,66,0.00,CLR,SKC,0.00,WeatherDisplay:10.37,2013-04-30 17:56:00,
2013-04-30 14:01:00,65.2,53.1,30.14,SSE,155,1.1,0.0,65,0.00,CLR,SKC,0.00,WeatherDisplay:10.37,2013-04-30 18:01:00,
2013-04-30 14:06:00,65.1,54.3,30.14,SSE,155,0.0,0.0,68,0.00,CLR,SKC,0.00,WeatherDisplay:10.37,2013-04-30 18:06:00,
2013-04-30 14:11:00,65.0,53.8,30.14,SSE,155,1.1,0.0,67,0.00,CLR,SKC,0.00,WeatherDisplay:10.37,2013-04-30 18:11:00,
2013-04-30 14:16:00,64.8,52.8,30.14,SSE,150,0.0,0.0,65,0.00,CLR,SKC,0.00,WeatherDisplay:10.37,2013-04-30 18:16:00,
2013-04-30 14:21:00,64.8,53.2,30.14,South,176,1.1,1.1,66,0.00,CLR,SKC,0.00,WeatherDisplay:10.37,2013-04-30 18:21:00,
2013-04-30 14:26:00,64.7,53.1,30.15,SE,143,1.1,0.0,66,0.00,CLR,SKC,0.00,WeatherDisplay:10.37,2013-04-30 18:26:00,
2013-04-30 14:31:00,64.6,53.4,30.15,SE,143,1.1,0.0,67,0.00,CLR,SKC,0.00,WeatherDisplay:10.37,2013-04-30 18:31:00,
2013-04-30 14:36:00,64.2,53.8,30.16,SW,215,1.1,0.0,69,0.00,CLR,SKC,0.00,WeatherDisplay:10.37,2013-04-30 18:36:00,
2013-04-30 14:41:00,63.9,55.1,30.16,SW,215,1.1,0.0,73,0.00,CLR,SKC,0.00,WeatherDisplay:10.37,2013-04-30 18:41:00,
2013-04-30 14:46:00,63.5,53.5,30.16,SSW,211,2.3,2.3,70,0.00,CLR,SKC,0.00,WeatherDisplay:10.37,2013-04-30 18:46:00,
2013-04-30 14:51:00,63.2,53.3,30.16,SSW,211,1.0,0.0,70,0.00,CLR,SKC,0.00,WeatherDisplay:10.37,2013-04-30 18:51:00,
2013-04-30 14:56:00,63.1,53.9,30.16,SSW,211,0.0,0.0,72,0.00,CLR,SKC,0.00,WeatherDisplay:10.37,2013-04-30 18:56:00,
2013-04-30 15:01:00,63.2,54.0,30.16,SSW,212,1.1,0.0,72,0.00,CLR,SKC,0.00,WeatherDisplay:10.37,2013-04-30 19:01:00,
2013-04-30 15:06:00,63.2,54.0,30.16,SSW,211,0.0,0.0,72,0.00,CLR,SKC,0.00,WeatherDisplay:10.37,2013-04-30 19:06:00,
2013-04-30 15:11:00,63.2,53.6,30.16,SSW,211,0.0,0.0,71,0.00,CLR,SKC,0.00,WeatherDisplay:10.37,2013-04-30 19:11:00,
2013-04-30 15:16:00,63.4,53.8,30.17,SSW,213,3.4,0.0,71,0.00,CLR,SKC,0.00,WeatherDisplay:10.37,2013-04-30 19:16:00,
2013-04-30 15:21:00,63.5,53.1,30.17,SE,134,0.0,0.0,69,0.00,CLR,SKC,0.00,WeatherDisplay:10.37,2013-04-30 19:21:00,
2013-04-30 15:26:00,63.6,53.6,30.17,SE,134,1.0,0.0,70,0.00,CLR,SKC,0.00,WeatherDisplay:10.37,2013-04-30 19:26:00,
2013-04-30 15:31:00,63.8,53.8,30.17,SW,233,3.4,3.4,70,0.00,CLR,SKC,0.00,WeatherDisplay:10.37,2013-04-30 19:31:00,
2013-04-30 15:36:00,63.8,55.0,30.17,East,89,1.1,1.1,73,0.00,CLR,SKC,0.00,WeatherDisplay:10.37,2013-04-30 19:36:00,
2013-04-30 15:41:00,63.8,55.7,30.17,East,89,0.0,0.0,75,0.00,CLR,SKC,0.00,WeatherDisplay:10.37,2013-04-30 19:41:00,
2013-04-30 15:46:00,63.7,55.6,30.17,SSW,213,1.1,1.1,75,0.00,CLR,SKC,0.00,WeatherDisplay:10.37,2013-04-30 19:46:00,
2013-04-30 15:51:00,63.7,55.3,30.16,SSW,213,2.3,2.3,74,0.00,CLR,SKC,0.00,WeatherDisplay:10.37,2013-04-30 19:51:00,
2013-04-30 15:56:00,63.9,55.1,30.16,SSW,213,2.0,2.0,73,0.00,CLR,SKC,0.00,WeatherDisplay:10.37,2013-04-30 19:56:00,
2013-04-30 16:01:00,64.0,54.4,30.16,NE,34,3.4,0.0,71,0.00,CLR,SKC,0.00,WeatherDisplay:10.37,2013-04-30 20:01:00,
2013-04-30 16:06:00,64.2,55.7,30.16,NE,34,0.0,0.0,74,0.00,CLR,SKC,0.00,WeatherDisplay:10.37,2013-04-30 20:06:00,
2013-04-30 16:11:00,64.6,55.4,30.16,NE,34,0.0,0.0,72,0.00,CLR,SKC,0.00,WeatherDisplay:10.37,2013-04-30 20:11:00,
2013-04-30 16:16:00,65.1,55.1,30.16,NNE,20,0.0,0.0,70,0.00,CLR,SKC,0.00,WeatherDisplay:10.37,2013-04-30 20:16:00,
2013-04-30 16:21:00,65.4,55.0,30.16,SSW,198,3.4,3.4,69,0.00,CLR,SKC,0.00,WeatherDisplay:10.37,2013-04-30 20:21:00,
2013-04-30 16:26:00,65.4,54.6,30.16,South,186,1.1,0.0,68,0.00,CLR,SKC,0.00,WeatherDisplay:10.37,2013-04-30 20:26:00,
2013-04-30 16:31:00,65.4,55.0,30.16,ESE,114,3.4,3.4,69,0.00,CLR,SKC,0.00,WeatherDisplay:10.37,2013-04-30 20:31:00,
2013-04-30 16:36:00,65.4,55.0,30.15,ESE,114,1.1,0.0,69,0.00,CLR,SKC,0.00,WeatherDisplay:10.37,2013-04-30 20:36:00,
2013-04-30 16:41:00,65.5,54.7,30.15,ESE,114,0.0,0.0,68,0.00,CLR,SKC,0.00,WeatherDisplay:10.37,2013-04-30 20:41:00,
2013-04-30 16:46:00,65.7,54.8,30.15,NNE,33,0.0,0.0,68,0.00,CLR,SKC,0.00,WeatherDisplay:10.37,2013-04-30 20:46:00,
2013-04-30 16:51:00,65.7,54.4,30.15,NNE,33,0.0,0.0,67,0.00,CLR,SKC,0.00,WeatherDisplay:10.37,2013-04-30 20:51:00,
2013-04-30 16:56:00,65.9,54.6,30.15,NNE,33,0.0,0.0,67,0.00,CLR,SKC,0.00,WeatherDisplay:10.37,2013-04-30 20:56:00,
2013-04-30 17:01:00,66.0,54.7,30.15,NNE,33,0.0,0.0,67,0.00,CLR,SKC,0.00,WeatherDisplay:10.37,2013-04-30 21:01:00,
2013-04-30 17:06:00,66.1,54.8,30.15,NNE,33,1.1,0.0,67,0.00,CLR,SKC,0.00,WeatherDisplay:10.37,2013-04-30 21:06:00,
2013-04-30 17:11:00,66.2,54.1,30.15,NNE,33,0.0,0.0,65,0.00,CLR,SKC,0.00,WeatherDisplay:10.37,2013-04-30 21:11:00,
2013-04-30 17:16:00,66.2,54.1,30.15,SW,217,3.4,3.4,65,0.00,CLR,SKC,0.00,WeatherDisplay:10.37,2013-04-30 21:16:00,
2013-04-30 17:21:00,66.3,54.2,30.15,SW,217,0.0,0.0,65,0.00,CLR,SKC,0.00,WeatherDisplay:10.37,2013-04-30 21:21:00,
2013-04-30 17:26:00,66.5,54.4,30.15,SW,217,2.3,2.3,65,0.00,CLR,SKC,0.00,WeatherDisplay:10.37,2013-04-30 21:26:00,
2013-04-30 17:31:00,66.8,53.8,30.15,SW,217,0.0,0.0,63,0.00,CLR,SKC,0.00,WeatherDisplay:10.37,2013-04-30 21:31:00,
2013-04-30 17:36:00,66.9,54.7,30.15,SW,216,2.3,2.3,65,0.00,CLR,SKC,0.00,WeatherDisplay:10.37,2013-04-30 21:36:00,
2013-04-30 17:41:00,66.9,54.3,30.15,SW,216,0.0,0.0,64,0.00,CLR,SKC,0.00,WeatherDisplay:10.37,2013-04-30 21:41:00,
2013-04-30 17:46:00,66.8,53.4,30.15,SW,216,0.0,0.0,62,0.00,CLR,SKC,0.00,WeatherDisplay:10.37,2013-04-30 21:46:00,
2013-04-30 17:51:00,66.6,53.2,30.16,SW,216,0.0,0.0,62,0.00,CLR,SKC,0.00,WeatherDisplay:10.37,2013-04-30 21:51:00,
2013-04-30 17:56:00,66.5,53.5,30.16,SW,216,0.0,0.0,63,0.00,CLR,SKC,0.00,WeatherDisplay:10.37,2013-04-30 21:56:00,
2013-04-30 18:01:00,66.4,53.8,30.16,SW,216,0.0,0.0,64,0.00,CLR,SKC,0.00,WeatherDisplay:10.37,2013-04-30 22:01:00,
2013-04-30 18:06:00,66.4,54.3,30.16,SW,216,0.0,0.0,65,0.00,CLR,SKC,0.00,WeatherDisplay:10.37,2013-04-30 22:06:00,
2013-04-30 18:11:00,66.3,53.8,30.16,SW,216,0.0,0.0,64,0.00,CLR,SKC,0.00,WeatherDisplay:10.37,2013-04-30 22:11:00,
2013-04-30 18:16:00,66.1,53.6,30.15,SW,216,0.0,0.0,64,0.00,CLR,SKC,0.00,WeatherDisplay:10.37,2013-04-30 22:16:00,
2013-04-30 18:21:00,65.9,53.4,30.15,SW,216,1.1,0.0,64,0.00,CLR,SKC,0.00,WeatherDisplay:10.37,2013-04-30 22:21:00,
2013-04-30 18:26:00,65.7,53.6,30.15,SW,216,0.0,0.0,65,0.00,CLR,SKC,0.00,WeatherDisplay:10.37,2013-04-30 22:26:00,
2013-04-30 18:31:00,65.6,53.5,30.15,SW,216,0.0,0.0,65,0.00,CLR,SKC,0.00,WeatherDisplay:10.37,2013-04-30 22:31:00,
2013-04-30 18:36:00,65.6,54.3,30.15,SW,216,0.0,0.0,67,0.00,CLR,SKC,0.00,WeatherDisplay:10.37,2013-04-30 22:36:00,
2013-04-30 18:41:00,65.6,53.9,30.15,SW,216,0.0,0.0,66,0.00,CLR,SKC,0.00,WeatherDisplay:10.37,2013-04-30 22:41:00,
2013-04-30 18:46:00,65.6,53.9,30.15,SW,216,0.0,0.0,66,0.00,CLR,SKC,0.00,WeatherDisplay:10.37,2013-04-30 22:46:00,
2013-04-30 18:51:00,65.6,53.5,30.15,SW,216,0.0,0.0,65,0.00,CLR,SKC,0.00,WeatherDisplay:10.37,2013-04-30 22:51:00,
2013-04-30 18:56:00,65.7,54.4,30.15,SW,216,0.0,0.0,67,0.00,CLR,SKC,0.00,WeatherDisplay:10.37,2013-04-30 22:56:00,
2013-04-30 19:01:00,65.6,53.9,30.15,SW,216,0.0,0.0,66,0.00,CLR,SKC,0.00,WeatherDisplay:10.37,2013-04-30 23:01:00,
2013-04-30 19:06:00,65.5,54.7,30.15,SW,216,0.0,0.0,68,0.00,CLR,SKC,0.00,WeatherDisplay:10.37,2013-04-30 23:06:00,
2013-04-30 19:11:00,65.3,54.1,30.15,SW,216,0.0,0.0,67,0.00,CLR,SKC,0.00,WeatherDisplay:10.37,2013-04-30 23:11:00,
2013-04-30 19:16:00,65.1,54.7,30.15,SW,216,0.0,0.0,69,0.00,CLR,SKC,0.00,WeatherDisplay:10.37,2013-04-30 23:16:00,
2013-04-30 19:21:00,65.0,55.0,30.15,SW,216,0.0,0.0,70,0.00,CLR,SKC,0.00,WeatherDisplay:10.37,2013-04-30 23:21:00,
2013-04-30 19:26:00,64.8,55.6,30.15,SW,216,0.0,0.0,72,0.00,CLR,SKC,0.00,WeatherDisplay:10.37,2013-04-30 23:26:00,
2013-04-30 19:31:00,64.7,55.8,30.15,SW,216,0.0,0.0,73,0.00,CLR,SKC,0.00,WeatherDisplay:10.37,2013-04-30 23:31:00,
2013-04-30 19:36:00,64.5,55.7,30.15,SW,216,0.0,0.0,73,0.00,CLR,SKC,0.00,WeatherDisplay:10.37,2013-04-30 23:36:00,
2013-04-30 19:41:00,64.3,55.8,30.15,SW,216,0.0,0.0,74,0.00,CLR,SKC,0.00,WeatherDisplay:10.37,2013-04-30 23:41:00,
2013-04-30 19:46:00,64.1,56.0,30.15,SW,216,0.0,0.0,75,0.00,CLR,SKC,0.00,WeatherDisplay:10.37,2013-04-30 23:46:00,
2013-04-30 19:51:00,63.8,55.7,30.15,SW,216,0.0,0.0,75,0.00,CLR,SKC,0.00,WeatherDisplay:10.37,2013-04-30 23:51:00,
2013-04-30 19:56:00,63.4,55.3,30.15,SW,216,0.0,0.0,75,0.00,CLR,SKC,0.00,WeatherDisplay:10.37,2013-04-30 23:56:00,
2013-04-30 20:01:00,63.0,54.9,30.15,SW,216,0.0,0.0,75,0.00,CLR,SKC,0.00,WeatherDisplay:10.37,2013-05-01 00:01:00,
2013-04-30 20:06:00,62.6,54.9,30.15,SW,216,0.0,0.0,76,0.00,CLR,SKC,0.00,WeatherDisplay:10.37,2013-05-01 00:06:00,
2013-04-30 20:11:00,62.2,54.5,30.15,SW,216,0.0,0.0,76,0.00,CLR,SKC,0.00,WeatherDisplay:10.37,2013-05-01 00:11:00,
2013-04-30 20:16:00,61.8,54.2,30.15,SW,216,0.0,0.0,76,0.00,CLR,SKC,0.00,WeatherDisplay:10.37,2013-05-01 00:16:00,
2013-04-30 20:21:00,61.3,54.0,30.15,SW,216,0.0,0.0,77,0.00,CLR,SKC,0.00,WeatherDisplay:10.37,2013-05-01 00:21:00,
2013-04-30 20:26:00,60.7,53.8,30.16,SW,216,0.0,0.0,78,0.00,CLR,SKC,0.00,WeatherDisplay:10.37,2013-05-01 00:26:00,
2013-04-30 20:31:00,60.1,53.9,30.16,SW,216,0.0,0.0,80,0.00,CLR,SKC,0.00,WeatherDisplay:10.37,2013-05-01 00:31:00,
2013-04-30 20:36:00,59.6,53.8,30.15,SW,216,0.0,0.0,81,0.00,CLR,SKC,0.00,WeatherDisplay:10.37,2013-05-01 00:36:00,
2013-04-30 20:41:00,59.1,53.6,30.16,SW,216,0.0,0.0,82,0.00,CLR,SKC,0.00,WeatherDisplay:10.37,2013-05-01 00:41:00,
2013-04-30 20:46:00,58.7,53.2,30.16,SW,216,0.0,0.0,82,0.00,CLR,SKC,0.00,WeatherDisplay:10.37,2013-05-01 00:46:00,
2013-04-30 20:51:00,58.2,52.4,30.16,SW,216,0.0,0.0,81,0.00,CLR,SKC,0.00,WeatherDisplay:10.37,2013-05-01 00:51:00,
2013-04-30 20:56:00,57.8,52.0,30.16,SW,216,0.0,0.0,81,0.00,CLR,SKC,0.00,WeatherDisplay:10.37,2013-05-01 00:56:00,
2013-04-30 21:01:00,57.5,51.7,30.16,SW,216,0.0,0.0,81,0.00,CLR,SKC,0.00,WeatherDisplay:10.37,2013-05-01 01:01:00,
2013-04-30 21:06:00,57.2,51.1,30.16,SW,216,0.0,0.0,80,0.00,CLR,SKC,0.00,WeatherDisplay:10.37,2013-05-01 01:06:00,
2013-04-30 21:11:00,56.9,50.8,30.17,SW,216,0.0,0.0,80,0.00,CLR,SKC,0.00,WeatherDisplay:10.37,2013-05-01 01:11:00,
2013-04-30 21:16:00,56.6,50.5,30.17,SW,216,0.0,0.0,80,0.00,CLR,SKC,0.00,WeatherDisplay:10.37,2013-05-01 01:16:00,
2013-04-30 21:21:00,56.4,50.6,30.17,SW,216,0.0,0.0,81,0.00,CLR,SKC,0.00,WeatherDisplay:10.37,2013-05-01 01:21:00,
2013-04-30 21:26:00,56.0,50.3,30.17,SW,216,0.0,0.0,81,0.00,CLR,SKC,0.00,WeatherDisplay:10.37,2013-05-01 01:26:00,
2013-04-30 21:31:00,55.7,50.0,30.17,SW,216,0.0,0.0,81,0.00,CLR,SKC,0.00,WeatherDisplay:10.37,2013-05-01 01:31:00,
2013-04-30 21:36:00,55.5,50.1,30.17,SW,216,0.0,0.0,82,0.00,CLR,SKC,0.00,WeatherDisplay:10.37,2013-05-01 01:36:00,
2013-04-30 21:41:00,55.2,49.8,30.17,SW,216,0.0,0.0,82,0.00,CLR,SKC,0.00,WeatherDisplay:10.37,2013-05-01 01:41:00,
2013-04-30 21:46:00,54.9,49.5,30.17,SW,216,0.0,0.0,82,0.00,CLR,SKC,0.00,WeatherDisplay:10.37,2013-05-01 01:46:00,
2013-04-30 21:51:00,54.9,49.2,30.18,SW,216,0.0,0.0,81,0.00,CLR,SKC,0.00,WeatherDisplay:10.37,2013-05-01 01:51:00,
2013-04-30 21:56:00,54.9,48.8,30.18,SW,216,0.0,0.0,80,0.00,CLR,SKC,0.00,WeatherDisplay:10.37,2013-05-01 01:56:00,
2013-04-30 22:01:00,55.1,48.7,30.18,SW,216,0.0,0.0,79,0.00,CLR,SKC,0.00,WeatherDisplay:10.37,2013-05-01 02:01:00,
2013-04-30 22:06:00,55.4,48.3,30.18,SW,216,0.0,0.0,77,0.00,CLR,SKC,0.00,WeatherDisplay:10.37,2013-05-01 02:06:00,
2013-04-30 22:11:00,55.5,48.1,30.19,SW,216,0.0,0.0,76,0.00,CLR,SKC,0.00,WeatherDisplay:10.37,2013-05-01 02:11:00,
2013-04-30 22:16:00,55.8,48.0,30.19,South,191,0.0,0.0,75,0.00,CLR,SKC,0.00,WeatherDisplay:10.37,2013-05-01 02:16:00,
2013-04-30 22:21:00,56.0,48.2,30.20,South,191,0.0,0.0,75,0.00,CLR,SKC,0.00,WeatherDisplay:10.37,2013-05-01 02:21:00,
2013-04-30 22:26:00,55.9,47.7,30.20,South,191,0.0,0.0,74,0.00,CLR,SKC,0.00,WeatherDisplay:10.37,2013-05-01 02:26:00,
2013-04-30 22:31:00,55.9,48.1,30.19,South,191,0.0,0.0,75,0.00,CLR,SKC,0.00,WeatherDisplay:10.37,2013-05-01 02:31:00,
2013-04-30 22:36:00,55.7,47.9,30.19,South,191,0.0,0.0,75,0.00,CLR,SKC,0.00,WeatherDisplay:10.37,2013-05-01 02:36:00,
2013-04-30 22:41:00,55.4,47.2,30.19,South,191,0.0,0.0,74,0.00,CLR,SKC,0.00,WeatherDisplay:10.37,2013-05-01 02:41:00,
2013-04-30 22:46:00,55.1,46.2,30.20,South,191,1.0,1.0,72,0.00,CLR,SKC,0.00,WeatherDisplay:10.37,2013-05-01 02:46:00,
2013-04-30 22:51:00,55.2,45.6,30.19,SSW,198,0.0,0.0,70,0.00,CLR,SKC,0.00,WeatherDisplay:10.37,2013-05-01 02:51:00,
2013-04-30 22:56:00,55.4,45.0,30.20,SSW,198,0.0,0.0,68,0.00,CLR,SKC,0.00,WeatherDisplay:10.37,2013-05-01 02:56:00,
2013-04-30 23:01:00,55.6,44.4,30.20,SE,138,1.1,1.1,66,0.00,CLR,SKC,0.00,WeatherDisplay:10.37,2013-05-01 03:01:00,
2013-04-30 23:06:00,55.9,44.3,30.20,SE,138,0.0,0.0,65,0.00,CLR,SKC,0.00,WeatherDisplay:10.37,2013-05-01 03:06:00,
2013-04-30 23:11:00,56.0,44.0,30.21,SE,138,0.0,0.0,64,0.00,CLR,SKC,0.00,WeatherDisplay:10.37,2013-05-01 03:11:00,
2013-04-30 23:16:00,55.8,43.4,30.21,SE,138,0.0,0.0,63,0.00,CLR,SKC,0.00,WeatherDisplay:10.37,2013-05-01 03:16:00,
2013-04-30 23:21:00,55.7,43.3,30.21,SE,138,0.0,0.0,63,0.00,CLR,SKC,0.00,WeatherDisplay:10.37,2013-05-01 03:21:00,
2013-04-30 23:26:00,55.5,43.9,30.22,SE,138,0.0,0.0,65,0.00,CLR,SKC,0.00,WeatherDisplay:10.37,2013-05-01 03:26:00,
2013-04-30 23:31:00,55.2,43.6,30.22,SE,138,0.0,0.0,65,0.00,CLR,SKC,0.00,WeatherDisplay:10.37,2013-05-01 03:31:00,
2013-04-30 23:36:00,54.9,43.4,30.22,SE,138,0.0,0.0,65,0.00,CLR,SKC,0.00,WeatherDisplay:10.37,2013-05-01 03:36:00,
2013-04-30 23:41:00,54.5,43.4,30.22,SE,138,0.0,0.0,66,0.00,CLR,SKC,0.00,WeatherDisplay:10.37,2013-05-01 03:41:00,
2013-04-30 23:46:00,54.2,42.3,30.23,SE,138,0.0,0.0,64,0.00,CLR,SKC,0.00,WeatherDisplay:10.37,2013-05-01 03:46:00,
2013-04-30 23:51:00,54.1,41.8,30.23,SE,138,0.0,0.0,63,0.00,CLR,SKC,0.00,WeatherDisplay:10.37,2013-05-01 03:51:00,
2013-04-30 23:56:00,53.9,41.6,30.23,SSE,168,0.0,0.0,63,0.00,CLR,SKC,0.00,WeatherDisplay:10.37,2013-05-01 03:56:00,